This is the latest recevied weather packets stored in our database for station/object WX7FGZ-6. If no packets are shown the sender has not sent any weather packets the latest 1 day(s).
| Time | Temp. | Humidity | Pressure | Rain* | Wind** | Luminosity | Snow |
|---|---|---|---|---|---|---|---|
| 1777980158 | -3.89° C | 91% | 1012 hPa | 0 mm | 3.58 m/s, 180° | - | - |
| 1777979860 | -3.89° C | 91% | 1012 hPa | 0 mm | 3.58 m/s, 180° | - | - |
| 1777979560 | -3.89° C | 91% | 1011.9 hPa | 0 mm | 4.02 m/s, 180° | - | - |
| 1777979489 | -3.89° C | 90% | 1012 hPa | 0 mm | 4.02 m/s, 178° | - | - |
| 1777979260 | -3.89° C | 90% | 1012 hPa | 0 mm | 4.02 m/s, 178° | - | - |
| 1777979139 | -3.89° C | 90% | 1012 hPa | 0 mm | 4.92 m/s, 177° | - | - |
| 1777978960 | -3.89° C | 90% | 1012 hPa | 0 mm | 4.92 m/s, 177° | - | - |
| 1777978660 | -3.89° C | 90% | 1012 hPa | 0 mm | 4.02 m/s, 176° | - | - |
| 1777978583 | -4.44° C | 89% | 1012 hPa | 0 mm | 4.02 m/s, 175° | - | - |
| 1777978360 | -4.44° C | 89% | 1012 hPa | 0 mm | 4.02 m/s, 175° | - | - |
| 1777978060 | -4.44° C | 89% | 1012 hPa | 0 mm | 3.13 m/s, 173° | - | - |
| 1777977760 | -4.44° C | 88% | 1012 hPa | 0 mm | 4.47 m/s, 174° | - | - |
| 1777977460 | -4.44° C | 88% | 1012 hPa | 0 mm | 3.58 m/s, 179° | - | - |
| 1777977160 | -4.44° C | 87% | 1012.1 hPa | 0 mm | 2.68 m/s, 169° | - | - |
| 1777976672 | -5° C | 82% | - | 0 mm | 4.47 m/s, 175° | - | - |
| 1777976668 | -5° C | 82% | 1012.2 hPa | 0 mm | 4.47 m/s, 175° | - | - |
| 1777976510 | -5° C | 80% | 1012.5 hPa | 0 mm | 3.13 m/s, 172° | - | - |
| 1777976297 | -5° C | 78% | 1012.4 hPa | 0 mm | 5.36 m/s, 179° | - | - |
| 1777976297 | -5° C | 80% | 1012.5 hPa | 0 mm | 3.13 m/s, 172° | - | - |
| 1777976297 | -5° C | 77% | 1012.6 hPa | 0 mm | 4.02 m/s, 175° | - | - |
| 1777976251 | -5° C | 80% | 1012.5 hPa | 0 mm | 3.13 m/s, 172° | - | - |
| 1777975951 | -5° C | 78% | 1012.4 hPa | 0 mm | 5.36 m/s, 179° | - | - |
| 1777975652 | -5° C | 77% | 1012.6 hPa | 0 mm | 4.02 m/s, 175° | - | - |
| 1777975352 | -5° C | 76% | 1012.4 hPa | 0 mm | 4.47 m/s, 177° | - | - |
| 1777975052 | -5° C | 78% | 1012.5 hPa | 0 mm | 4.02 m/s, 172° | - | - |
* Rain latest hour (hover to see other rain measurements)
** Current wind speed in m/s (hover to see current wind gust speed)